Terminal Aerodrome Forecast
Issued by NWS

Home | Current Version | Previous Version | Graphics & Text | Print | Product List | Glossary Off
Versions: 1 2 3 4 5 6 7 8 9 10 11 12 13 14 15

000
FTUS43 KICT 272322
TAFSLN
TAF
KSLN 272322Z 2800/2824 10012KT P6SM VCSH OVC060
      TEMPO 2800/2802 6SM SHRA OVC030
     FM280200 10014G20KT P6SM VCTS BKN025 OVC050CB
      TEMPO 2802/2806 5SM TSRA
     FM280900 10011KT 6SM BR OVC012
     FM281200 13006KT 5SM BR OVC008
     FM281500 VRB04KT P6SM OVC020
     FM282000 01007KT P6SM SCT030 BKN050=

USA.gov is the U.S. government's official web portal to all federal, state and local government web resources and services.